PWSweather.com
Personal Weather Stations
Station Observations
WESTON01
WestonSuperMareGB BS22 8RT

WestonSuperMareGB BS22 8RT

Lat: 51.351508, Lon: -2.933373

Elevation: 15

Station Type: Fine Offset WH1080

http://www.westonweather.co.uk

High Low Average
Temperature 49.4°F9.7°F 38.4°F3.6°F 44.2°F6.8°F
Dew Point 45.0°F7.2°F 34.6°F1.4°F 40.4°F4.7°F
Winds 14.2 mph -22.9 mph - Calm Calm 5.4 mph 8.7 mph
Wind Gusts 21.1 mph34.0 mph -- 8.6 mph13.8 mph
Humidity 89% 82% 86%
Pressure 29.88 in1011.90 in 29.56 in1001.00 in -
Precipitation 0.96 in24.40 in - -
Hour Temp Dew Point Humidity Winds Wind Gusts Pressure Precip Precip Rate Daily Precip Total
12:00 AM 46.1°F7.8°C 42.2°F5.7°C 86% 5.9 mph SW9.5 kmh SW 8.9 mph14.3 kmh 29.88 in1011.9 mb 0.00 in0.0 mm 0.00 in0.0 mm 0.00 in0.0 mm
12:05 AM 46.1°F7.8°C 42.2°F5.7°C 86% 5.0 mph SSW8.0 kmh SSW 8.0 mph12.9 kmh 29.85 in1010.8 mb 0.00 in0.0 mm 0.00 in0.0 mm 0.00 in0.0 mm
12:10 AM 46.1°F7.8°C 42.2°F5.7°C 86% 5.2 mph SSW8.4 kmh SSW 8.0 mph12.9 kmh 29.85 in1010.8 mb 0.00 in0.0 mm 0.00 in0.0 mm 0.00 in0.0 mm
12:15 AM 46.3°F7.9°C 42.4°F5.8°C 86% 5.8 mph SSW9.3 kmh SSW 8.9 mph14.3 kmh 29.85 in1010.8 mb 0.00 in0.0 mm 0.00 in0.0 mm 0.00 in0.0 mm
12:20 AM 46.3°F7.9°C 42.4°F5.8°C 86% 6.1 mph S9.8 kmh S 8.9 mph14.3 kmh 29.85 in1010.8 mb 0.00 in0.0 mm 0.00 in0.0 mm 0.00 in0.0 mm
12:25 AM 46.3°F7.9°C 42.4°F5.8°C 86% 5.1 mph SSW8.2 kmh SSW 8.3 mph13.4 kmh 29.85 in1010.8 mb 0.00 in0.0 mm 0.00 in0.0 mm 0.00 in0.0 mm
12:30 AM 46.3°F7.9°C 42.4°F5.8°C 86% 4.5 mph SSW7.2 kmh SSW 7.1 mph11.4 kmh 29.85 in1010.8 mb 0.00 in0.0 mm 0.00 in0.0 mm 0.00 in0.0 mm
12:35 AM 46.3°F7.9°C 42.4°F5.8°C 86% 4.5 mph SSW7.2 kmh SSW 7.1 mph11.4 kmh 29.82 in1009.8 mb 0.00 in0.0 mm 0.00 in0.0 mm 0.00 in0.0 mm
12:40 AM 46.5°F8.1°C 42.5°F5.8°C 86% 5.2 mph SW8.4 kmh SW 9.5 mph15.3 kmh 29.82 in1009.8 mb 0.00 in0.0 mm 0.00 in0.0 mm 0.00 in0.0 mm
12:45 AM 46.5°F8.1°C 42.5°F5.8°C 86% 6.4 mph SW10.3 kmh SW 9.5 mph15.3 kmh 29.82 in1009.8 mb 0.00 in0.0 mm 0.00 in0.0 mm 0.00 in0.0 mm
12:50 AM 46.7°F8.2°C 42.7°F5.9°C 86% 6.7 mph SW10.8 kmh SW 9.8 mph15.8 kmh 29.85 in1010.8 mb 0.00 in0.0 mm 0.00 in0.0 mm 0.00 in0.0 mm
12:55 AM 46.7°F8.2°C 42.7°F5.9°C 86% 6.5 mph SW10.5 kmh SW 10.1 mph16.3 kmh 29.85 in1010.8 mb 0.00 in0.0 mm 0.00 in0.0 mm 0.00 in0.0 mm
01:00 AM 46.7°F8.2°C 42.7°F5.9°C 86% 5.0 mph SW8.0 kmh SW 10.1 mph16.3 kmh 29.85 in1010.8 mb 0.00 in0.0 mm 0.00 in0.0 mm 0.00 in0.0 mm
01:05 AM 46.7°F8.2°C 42.7°F5.9°C 86% 4.3 mph SW6.9 kmh SW 5.4 mph8.7 kmh 29.85 in1010.8 mb 0.00 in0.0 mm 0.00 in0.0 mm 0.00 in0.0 mm
01:10 AM 46.7°F8.2°C 42.7°F5.9°C 86% 4.3 mph SW6.9 kmh SW 5.7 mph9.2 kmh 29.82 in1009.8 mb 0.00 in0.0 mm 0.00 in0.0 mm 0.00 in0.0 mm
01:15 AM 46.8°F8.2°C 42.9°F6.1°C 86% 4.4 mph SSW7.1 kmh SSW 6.5 mph10.5 kmh 29.82 in1009.8 mb 0.00 in0.0 mm 0.00 in0.0 mm 0.00 in0.0 mm
01:20 AM 46.8°F8.2°C 42.9°F6.1°C 86% 4.7 mph SSW7.6 kmh SSW 6.5 mph10.5 kmh 29.82 in1009.8 mb 0.00 in0.0 mm 0.00 in0.0 mm 0.00 in0.0 mm
01:25 AM 46.8°F8.2°C 42.9°F6.1°C 86% 4.5 mph S7.2 kmh S 6.5 mph10.5 kmh 29.82 in1009.8 mb 0.00 in0.0 mm 0.00 in0.0 mm 0.00 in0.0 mm
01:30 AM 46.8°F8.2°C 42.9°F6.1°C 86% 5.3 mph SSW8.5 kmh SSW 6.5 mph10.5 kmh 29.82 in1009.8 mb 0.00 in0.0 mm 0.00 in0.0 mm 0.00 in0.0 mm
01:35 AM 46.8°F8.2°C 42.9°F6.1°C 86% 5.3 mph SW8.5 kmh SW 10.7 mph17.2 kmh 29.82 in1009.8 mb 0.00 in0.0 mm 0.00 in0.0 mm 0.00 in0.0 mm
01:40 AM 46.8°F8.2°C 42.9°F6.1°C 86% 4.6 mph SW7.4 kmh SW 10.7 mph17.2 kmh 29.82 in1009.8 mb 0.00 in0.0 mm 0.00 in0.0 mm 0.00 in0.0 mm
01:45 AM 46.7°F8.2°C 42.7°F5.9°C 86% 4.3 mph SW6.9 kmh SW 8.3 mph13.4 kmh 29.82 in1009.8 mb 0.00 in0.0 mm 0.00 in0.0 mm 0.00 in0.0 mm
01:50 AM 46.7°F8.2°C 42.7°F5.9°C 86% 6.2 mph SW10.0 kmh SW 9.2 mph14.8 kmh 29.82 in1009.8 mb 0.00 in0.0 mm 0.00 in0.0 mm 0.00 in0.0 mm
01:55 AM 46.7°F8.2°C 42.7°F5.9°C 86% 6.6 mph SW10.6 kmh SW 9.2 mph14.8 kmh 29.82 in1009.8 mb 0.00 in0.0 mm 0.00 in0.0 mm 0.00 in0.0 mm
02:00 AM 46.7°F8.2°C 42.7°F5.9°C 86% 4.4 mph SSW7.1 kmh SSW 7.7 mph12.4 kmh 29.82 in1009.8 mb 0.00 in0.0 mm 0.00 in0.0 mm 0.00 in0.0 mm
02:05 AM 46.7°F8.2°C 42.7°F5.9°C 86% 4.6 mph S7.4 kmh S 9.2 mph14.8 kmh 29.82 in1009.8 mb 0.00 in0.0 mm 0.00 in0.0 mm 0.00 in0.0 mm
02:10 AM 46.7°F8.2°C 43.0°F6.1°C 87% 5.3 mph SSW8.5 kmh SSW 9.2 mph14.8 kmh 29.82 in1009.8 mb 0.00 in0.0 mm 0.00 in0.0 mm 0.00 in0.0 mm
02:15 AM 46.5°F8.1°C 42.8°F6.0°C 87% 4.2 mph SW6.8 kmh SW 5.1 mph8.2 kmh 29.82 in1009.8 mb 0.00 in0.0 mm 0.00 in0.0 mm 0.00 in0.0 mm
02:20 AM 46.5°F8.1°C 42.8°F6.0°C 87% 4.1 mph SSW6.6 kmh SSW 5.1 mph8.2 kmh 29.82 in1009.8 mb 0.00 in0.0 mm 0.00 in0.0 mm 0.00 in0.0 mm
02:25 AM 46.5°F8.1°C 42.8°F6.0°C 87% 3.1 mph S5.0 kmh S 5.1 mph8.2 kmh 29.82 in1009.8 mb 0.00 in0.0 mm 0.00 in0.0 mm 0.00 in0.0 mm
02:30 AM 46.5°F8.1°C 42.8°F6.0°C 87% 3.6 mph S5.8 kmh S 7.4 mph11.9 kmh 29.82 in1009.8 mb 0.00 in0.0 mm 0.00 in0.0 mm 0.00 in0.0 mm
02:35 AM 46.5°F8.1°C 42.8°F6.0°C 87% 5.0 mph SSW8.0 kmh SSW 7.4 mph11.9 kmh 29.82 in1009.8 mb 0.00 in0.0 mm 0.00 in0.0 mm 0.00 in0.0 mm
02:40 AM 46.7°F8.2°C 43.0°F6.1°C 87% 5.6 mph SSW9.0 kmh SSW 7.4 mph11.9 kmh 29.82 in1009.8 mb 0.00 in0.0 mm 0.00 in0.0 mm 0.00 in0.0 mm
02:45 AM 46.7°F8.2°C 43.0°F6.1°C 87% 5.5 mph SW8.9 kmh SW 7.4 mph11.9 kmh 29.82 in1009.8 mb 0.00 in0.0 mm 0.00 in0.0 mm 0.00 in0.0 mm
02:50 AM 46.7°F8.2°C 43.0°F6.1°C 87% 5.6 mph SW9.0 kmh SW 7.4 mph11.9 kmh 29.79 in1008.8 mb 0.00 in0.0 mm 0.00 in0.0 mm 0.00 in0.0 mm
02:55 AM 46.7°F8.2°C 43.0°F6.1°C 87% 5.4 mph WSW8.7 kmh WSW 6.5 mph10.5 kmh 29.79 in1008.8 mb 0.00 in0.0 mm 0.00 in0.0 mm 0.00 in0.0 mm
03:00 AM 46.8°F8.2°C 43.2°F6.2°C 87% 4.8 mph WSW7.7 kmh WSW 6.5 mph10.5 kmh 29.79 in1008.8 mb 0.00 in0.0 mm 0.00 in0.0 mm 0.00 in0.0 mm
03:05 AM 46.8°F8.2°C 43.2°F6.2°C 87% 4.4 mph SW7.1 kmh SW 6.5 mph10.5 kmh 29.79 in1008.8 mb 0.00 in0.0 mm 0.00 in0.0 mm 0.00 in0.0 mm
03:10 AM 46.8°F8.2°C 43.2°F6.2°C 87% 4.4 mph SW7.1 kmh SW 6.5 mph10.5 kmh 29.79 in1008.8 mb 0.00 in0.0 mm 0.00 in0.0 mm 0.00 in0.0 mm
03:15 AM 46.8°F8.2°C 42.9°F6.1°C 86% 5.6 mph SW9.0 kmh SW 11.3 mph18.2 kmh 29.79 in1008.8 mb 0.00 in0.0 mm 0.00 in0.0 mm 0.00 in0.0 mm
03:20 AM 46.8°F8.2°C 42.9°F6.1°C 86% 6.0 mph SW9.7 kmh SW 11.3 mph18.2 kmh 29.79 in1008.8 mb 0.00 in0.0 mm 0.00 in0.0 mm 0.00 in0.0 mm
03:25 AM 46.8°F8.2°C 42.9°F6.1°C 86% 6.5 mph WSW10.5 kmh WSW 8.6 mph13.8 kmh 29.79 in1008.8 mb 0.00 in0.0 mm 0.00 in0.0 mm 0.00 in0.0 mm
03:30 AM 46.8°F8.2°C 42.9°F6.1°C 86% 7.9 mph SW12.7 kmh SW 13.1 mph21.1 kmh 29.79 in1008.8 mb 0.00 in0.0 mm 0.00 in0.0 mm 0.00 in0.0 mm
03:35 AM 46.8°F8.2°C 42.9°F6.1°C 86% 7.9 mph S12.7 kmh S 13.1 mph21.1 kmh 29.79 in1008.8 mb 0.00 in0.0 mm 0.00 in0.0 mm 0.00 in0.0 mm
03:40 AM 46.8°F8.2°C 42.9°F6.1°C 86% 6.8 mph S10.9 kmh S 8.3 mph13.4 kmh 29.79 in1008.8 mb 0.00 in0.0 mm 0.00 in0.0 mm 0.00 in0.0 mm
03:45 AM 46.7°F8.2°C 42.7°F5.9°C 86% 6.9 mph SW11.1 kmh SW 10.7 mph17.2 kmh 29.79 in1008.8 mb 0.00 in0.0 mm 0.00 in0.0 mm 0.00 in0.0 mm
03:50 AM 46.5°F8.1°C 42.5°F5.8°C 86% 7.4 mph SW11.9 kmh SW 10.7 mph17.2 kmh 29.76 in1007.8 mb 0.00 in0.0 mm 0.00 in0.0 mm 0.00 in0.0 mm
03:55 AM 46.5°F8.1°C 42.5°F5.8°C 86% 7.6 mph SSW12.2 kmh SSW 11.6 mph18.7 kmh 29.76 in1007.8 mb 0.00 in0.0 mm 0.00 in0.0 mm 0.00 in0.0 mm
04:00 AM 46.3°F7.9°C 42.4°F5.8°C 86% 8.1 mph S13.0 kmh S 16.1 mph25.9 kmh 29.76 in1007.8 mb 0.00 in0.0 mm 0.00 in0.0 mm 0.00 in0.0 mm
04:05 AM 46.3°F7.9°C 42.4°F5.8°C 86% 7.1 mph SSW11.4 kmh SSW 16.1 mph25.9 kmh 29.76 in1007.8 mb 0.00 in0.0 mm 0.00 in0.0 mm 0.00 in0.0 mm
04:10 AM 46.3°F7.9°C 42.4°F5.8°C 86% 5.1 mph SSW8.2 kmh SSW 7.4 mph11.9 kmh 29.76 in1007.8 mb 0.00 in0.0 mm 0.00 in0.0 mm 0.00 in0.0 mm
04:15 AM 46.3°F7.9°C 42.4°F5.8°C 86% 5.8 mph SSW9.3 kmh SSW 13.4 mph21.6 kmh 29.76 in1007.8 mb 0.00 in0.0 mm 0.00 in0.0 mm 0.00 in0.0 mm
04:20 AM 46.3°F7.9°C 42.4°F5.8°C 86% 5.8 mph S9.3 kmh S 13.4 mph21.6 kmh 29.73 in1006.8 mb 0.00 in0.0 mm 0.00 in0.0 mm 0.00 in0.0 mm
04:25 AM 46.3°F7.9°C 42.7°F5.9°C 87% 5.1 mph S8.2 kmh S 7.1 mph11.4 kmh 29.73 in1006.8 mb 0.00 in0.0 mm 0.00 in0.0 mm 0.00 in0.0 mm
04:30 AM 46.3°F7.9°C 42.7°F5.9°C 87% 5.2 mph SW8.4 kmh SW 7.1 mph11.4 kmh 29.73 in1006.8 mb 0.00 in0.0 mm 0.00 in0.0 mm 0.00 in0.0 mm
04:35 AM 46.3°F7.9°C 42.7°F5.9°C 87% 4.9 mph WSW7.9 kmh WSW 7.1 mph11.4 kmh 29.73 in1006.8 mb 0.00 in0.0 mm 0.00 in0.0 mm 0.00 in0.0 mm
04:40 AM 46.3°F7.9°C 42.7°F5.9°C 87% 4.1 mph WSW6.6 kmh WSW 5.7 mph9.2 kmh 29.73 in1006.8 mb 0.00 in0.0 mm 0.00 in0.0 mm 0.00 in0.0 mm
04:45 AM 46.3°F7.9°C 42.7°F5.9°C 87% 4.4 mph SW7.1 kmh SW 7.1 mph11.4 kmh 29.73 in1006.8 mb 0.00 in0.0 mm 0.00 in0.0 mm 0.00 in0.0 mm
04:50 AM 46.3°F7.9°C 42.7°F5.9°C 87% 5.7 mph SW9.2 kmh SW 10.7 mph17.2 kmh 29.73 in1006.8 mb 0.00 in0.0 mm 0.00 in0.0 mm 0.00 in0.0 mm
04:55 AM 46.3°F7.9°C 42.7°F5.9°C 87% 6.3 mph SW10.1 kmh SW 10.7 mph17.2 kmh 29.73 in1006.8 mb 0.00 in0.0 mm 0.00 in0.0 mm 0.00 in0.0 mm
05:00 AM 46.3°F7.9°C 42.7°F5.9°C 87% 6.1 mph SW9.8 kmh SW 11.3 mph18.2 kmh 29.73 in1006.8 mb 0.00 in0.0 mm 0.00 in0.0 mm 0.00 in0.0 mm
05:05 AM 46.3°F7.9°C 42.7°F5.9°C 87% 6.2 mph SSW10.0 kmh SSW 11.3 mph18.2 kmh 29.73 in1006.8 mb 0.00 in0.0 mm 0.00 in0.0 mm 0.00 in0.0 mm
05:10 AM 46.3°F7.9°C 42.7°F5.9°C 87% 6.1 mph SW9.8 kmh SW 8.3 mph13.4 kmh 29.73 in1006.8 mb 0.00 in0.0 mm 0.00 in0.0 mm 0.00 in0.0 mm
05:15 AM 46.3°F7.9°C 42.7°F5.9°C 87% 6.5 mph SW10.5 kmh SW 14.3 mph23.0 kmh 29.73 in1006.8 mb 0.00 in0.0 mm 0.00 in0.0 mm 0.00 in0.0 mm
05:20 AM 46.3°F7.9°C 42.7°F5.9°C 87% 6.2 mph SW10.0 kmh SW 14.3 mph23.0 kmh 29.70 in1005.8 mb 0.00 in0.0 mm 0.00 in0.0 mm 0.00 in0.0 mm
05:25 AM 46.3°F7.9°C 42.7°F5.9°C 87% 7.1 mph SW11.4 kmh SW 10.1 mph16.3 kmh 29.70 in1005.8 mb 0.00 in0.0 mm 0.00 in0.0 mm 0.00 in0.0 mm
05:30 AM 46.3°F7.9°C 42.7°F5.9°C 87% 7.9 mph SW12.7 kmh SW 10.1 mph16.3 kmh 29.70 in1005.8 mb 0.00 in0.0 mm 0.00 in0.0 mm 0.00 in0.0 mm
05:35 AM 46.3°F7.9°C 42.7°F5.9°C 87% 8.0 mph SW12.9 kmh SW 10.0 mph16.1 kmh 29.70 in1005.8 mb 0.00 in0.0 mm 0.00 in0.0 mm 0.00 in0.0 mm
05:40 AM 46.3°F7.9°C 42.7°F5.9°C 87% 8.5 mph WSW13.7 kmh WSW 13.4 mph21.6 kmh 29.70 in1005.8 mb 0.00 in0.0 mm 0.00 in0.0 mm 0.00 in0.0 mm
05:45 AM 46.3°F7.9°C 42.7°F5.9°C 87% 9.1 mph SW14.6 kmh SW 13.4 mph21.6 kmh 29.70 in1005.8 mb 0.00 in0.0 mm 0.00 in0.0 mm 0.00 in0.0 mm
05:50 AM 46.5°F8.1°C 42.8°F6.0°C 87% 6.7 mph SW10.8 kmh SW 13.4 mph21.6 kmh 29.70 in1005.8 mb 0.00 in0.0 mm 0.00 in0.0 mm 0.00 in0.0 mm
05:55 AM 46.5°F8.1°C 42.8°F6.0°C 87% 5.6 mph SW9.0 kmh SW 9.8 mph15.8 kmh 29.70 in1005.8 mb 0.00 in0.0 mm 0.00 in0.0 mm 0.00 in0.0 mm
06:00 AM 46.5°F8.1°C 42.8°F6.0°C 87% 6.1 mph SW9.8 kmh SW 9.8 mph15.8 kmh 29.70 in1005.8 mb 0.00 in0.0 mm 0.00 in0.0 mm 0.00 in0.0 mm
06:05 AM 46.5°F8.1°C 42.8°F6.0°C 87% 6.1 mph SW9.8 kmh SW 8.0 mph12.9 kmh 29.68 in1005.1 mb 0.00 in0.0 mm 0.00 in0.0 mm 0.00 in0.0 mm
06:10 AM 46.5°F8.1°C 42.8°F6.0°C 87% 5.3 mph SSW8.5 kmh SSW 7.7 mph12.4 kmh 29.68 in1005.1 mb 0.00 in0.0 mm 0.00 in0.0 mm 0.00 in0.0 mm
06:15 AM 46.7°F8.2°C 43.0°F6.1°C 87% 4.7 mph SSW7.6 kmh SSW 5.7 mph9.2 kmh 29.68 in1005.1 mb 0.00 in0.0 mm 0.00 in0.0 mm 0.00 in0.0 mm
06:20 AM 46.7°F8.2°C 43.0°F6.1°C 87% 4.9 mph SSW7.9 kmh SSW 6.5 mph10.5 kmh 29.68 in1005.1 mb 0.00 in0.0 mm 0.00 in0.0 mm 0.00 in0.0 mm
06:25 AM 46.7°F8.2°C 43.0°F6.1°C 87% 5.1 mph SSW8.2 kmh SSW 7.1 mph11.4 kmh 29.68 in1005.1 mb 0.00 in0.0 mm 0.00 in0.0 mm 0.00 in0.0 mm
06:30 AM 46.7°F8.2°C 43.0°F6.1°C 87% 5.4 mph S8.7 kmh S 7.4 mph11.9 kmh 29.68 in1005.1 mb 0.00 in0.0 mm 0.00 in0.0 mm 0.00 in0.0 mm
06:35 AM 46.7°F8.2°C 43.0°F6.1°C 87% 5.5 mph S8.9 kmh S 8.6 mph13.8 kmh 29.68 in1005.1 mb 0.00 in0.0 mm 0.00 in0.0 mm 0.00 in0.0 mm
06:40 AM 46.7°F8.2°C 43.0°F6.1°C 87% 4.9 mph SSW7.9 kmh SSW 8.6 mph13.8 kmh 29.68 in1005.1 mb 0.00 in0.0 mm 0.00 in0.0 mm 0.00 in0.0 mm
06:45 AM 46.7°F8.2°C 43.0°F6.1°C 87% 4.2 mph SW6.8 kmh SW 5.7 mph9.2 kmh 29.68 in1005.1 mb 0.00 in0.0 mm 0.00 in0.0 mm 0.00 in0.0 mm
06:50 AM 46.7°F8.2°C 43.0°F6.1°C 87% 4.2 mph SW6.8 kmh SW 6.2 mph10.0 kmh 29.68 in1005.1 mb 0.00 in0.0 mm 0.00 in0.0 mm 0.00 in0.0 mm
06:55 AM 46.7°F8.2°C 43.0°F6.1°C 87% 4.6 mph SW7.4 kmh SW 7.4 mph11.9 kmh 29.68 in1005.1 mb 0.00 in0.0 mm 0.00 in0.0 mm 0.00 in0.0 mm
07:00 AM 46.8°F8.2°C 43.2°F6.2°C 87% 4.1 mph SW6.6 kmh SW 7.4 mph11.9 kmh 29.68 in1005.1 mb 0.00 in0.0 mm 0.00 in0.0 mm 0.00 in0.0 mm
07:05 AM 46.8°F8.2°C 43.2°F6.2°C 87% 3.7 mph SW6.0 kmh SW 7.4 mph11.9 kmh 29.68 in1005.1 mb 0.00 in0.0 mm 0.00 in0.0 mm 0.00 in0.0 mm
07:10 AM 46.8°F8.2°C 43.2°F6.2°C 87% 3.6 mph SW5.8 kmh SW 5.4 mph8.7 kmh 29.68 in1005.1 mb 0.00 in0.0 mm 0.00 in0.0 mm 0.00 in0.0 mm
07:15 AM 46.8°F8.2°C 43.2°F6.2°C 87% 3.7 mph SW6.0 kmh SW 5.7 mph9.2 kmh 29.68 in1005.1 mb 0.00 in0.0 mm 0.00 in0.0 mm 0.00 in0.0 mm
07:20 AM 46.8°F8.2°C 43.2°F6.2°C 87% 3.8 mph SW6.1 kmh SW 5.7 mph9.2 kmh 29.68 in1005.1 mb 0.00 in0.0 mm 0.00 in0.0 mm 0.00 in0.0 mm
07:25 AM 47.0°F8.3°C 43.1°F6.2°C 86% 3.8 mph SW6.1 kmh SW 5.1 mph8.2 kmh 29.68 in1005.1 mb 0.00 in0.0 mm 0.00 in0.0 mm 0.00 in0.0 mm
07:30 AM 47.0°F8.3°C 43.1°F6.2°C 86% 4.1 mph SW6.6 kmh SW 5.4 mph8.7 kmh 29.68 in1005.1 mb 0.00 in0.0 mm 0.00 in0.0 mm 0.00 in0.0 mm
07:35 AM 46.8°F8.2°C 43.2°F6.2°C 87% 4.8 mph S7.7 kmh S 8.0 mph12.9 kmh 29.68 in1005.1 mb 0.00 in0.0 mm 0.00 in0.0 mm 0.00 in0.0 mm
07:40 AM 46.8°F8.2°C 43.2°F6.2°C 87% 5.1 mph SSW8.2 kmh SSW 8.0 mph12.9 kmh 29.68 in1005.1 mb 0.00 in0.0 mm 0.00 in0.0 mm 0.00 in0.0 mm
07:45 AM 46.8°F8.2°C 43.2°F6.2°C 87% 4.9 mph SW7.9 kmh SW 9.5 mph15.3 kmh 29.68 in1005.1 mb 0.00 in0.0 mm 0.00 in0.0 mm 0.00 in0.0 mm
07:50 AM 46.8°F8.2°C 43.5°F6.4°C 88% 4.6 mph SW7.4 kmh SW 9.5 mph15.3 kmh 29.68 in1005.1 mb 0.00 in0.0 mm 0.00 in0.0 mm 0.00 in0.0 mm
07:55 AM 46.8°F8.2°C 43.5°F6.4°C 88% 4.9 mph SW7.9 kmh SW 8.3 mph13.4 kmh 29.68 in1005.1 mb 0.00 in0.0 mm 0.00 in0.0 mm 0.00 in0.0 mm
08:00 AM 46.8°F8.2°C 43.5°F6.4°C 88% 6.5 mph SW10.5 kmh SW 8.3 mph13.4 kmh 29.68 in1005.1 mb 0.00 in0.0 mm 0.00 in0.0 mm 0.00 in0.0 mm
08:05 AM 46.8°F8.2°C 43.5°F6.4°C 88% 6.4 mph SW10.3 kmh SW 9.5 mph15.3 kmh 29.68 in1005.1 mb 0.00 in0.0 mm 0.00 in0.0 mm 0.00 in0.0 mm
08:10 AM 46.8°F8.2°C 43.5°F6.4°C 88% 6.5 mph SW10.5 kmh SW 9.5 mph15.3 kmh 29.68 in1005.1 mb 0.00 in0.0 mm 0.00 in0.0 mm 0.00 in0.0 mm
08:15 AM 46.8°F8.2°C 43.5°F6.4°C 88% 6.3 mph SSW10.1 kmh SSW 9.5 mph15.3 kmh 29.68 in1005.1 mb 0.00 in0.0 mm 0.00 in0.0 mm 0.00 in0.0 mm
08:20 AM 46.8°F8.2°C 43.5°F6.4°C 88% 6.7 mph SSW10.8 kmh SSW 11.6 mph18.7 kmh 29.65 in1004.1 mb 0.00 in0.0 mm 0.00 in0.0 mm 0.00 in0.0 mm
08:25 AM 46.8°F8.2°C 43.5°F6.4°C 88% 6.4 mph SW10.3 kmh SW 11.6 mph18.7 kmh 29.65 in1004.1 mb 0.00 in0.0 mm 0.00 in0.0 mm 0.00 in0.0 mm
08:30 AM 46.8°F8.2°C 43.5°F6.4°C 88% 5.7 mph SW9.2 kmh SW 10.4 mph16.7 kmh 29.65 in1004.1 mb 0.00 in0.0 mm 0.00 in0.0 mm 0.00 in0.0 mm
08:35 AM 46.8°F8.2°C 43.5°F6.4°C 88% 7.3 mph SW11.7 kmh SW 10.4 mph16.7 kmh 29.65 in1004.1 mb 0.00 in0.0 mm 0.00 in0.0 mm 0.00 in0.0 mm
08:40 AM 46.7°F8.2°C 43.6°F6.4°C 89% 7.8 mph SW12.6 kmh SW 10.4 mph16.7 kmh 29.65 in1004.1 mb 0.00 in0.0 mm 0.00 in0.0 mm 0.00 in0.0 mm
08:45 AM 46.7°F8.2°C 43.6°F6.4°C 89% 7.0 mph SSW11.3 kmh SSW 10.1 mph16.3 kmh 29.65 in1004.1 mb 0.00 in0.0 mm 0.00 in0.0 mm 0.00 in0.0 mm
08:50 AM 46.7°F8.2°C 43.6°F6.4°C 89% 5.8 mph SSW9.3 kmh SSW 10.1 mph16.3 kmh 29.65 in1004.1 mb 0.00 in0.0 mm 0.00 in0.0 mm 0.00 in0.0 mm
08:55 AM 46.5°F8.1°C 43.4°F6.3°C 89% 5.8 mph SSW9.3 kmh SSW 10.1 mph16.3 kmh 29.65 in1004.1 mb 0.00 in0.0 mm 0.00 in0.0 mm 0.00 in0.0 mm
09:00 AM 46.5°F8.1°C 43.4°F6.3°C 89% 5.6 mph SSW9.0 kmh SSW 8.3 mph13.4 kmh 29.65 in1004.1 mb 0.00 in0.0 mm 0.00 in0.0 mm 0.00 in0.0 mm
09:05 AM 46.7°F8.2°C 43.6°F6.4°C 89% 6.6 mph SSW10.6 kmh SSW 8.3 mph13.4 kmh 29.65 in1004.1 mb 0.00 in0.0 mm 0.00 in0.0 mm 0.00 in0.0 mm
09:10 AM 46.7°F8.2°C 43.6°F6.4°C 89% 7.0 mph SSW11.3 kmh SSW 10.1 mph16.3 kmh 29.65 in1004.1 mb 0.00 in0.0 mm 0.00 in0.0 mm 0.00 in0.0 mm
09:15 AM 46.7°F8.2°C 43.6°F6.4°C 89% 7.4 mph SSW11.9 kmh SSW 11.3 mph18.2 kmh 29.65 in1004.1 mb 0.00 in0.0 mm 0.00 in0.0 mm 0.00 in0.0 mm
09:20 AM 46.7°F8.2°C 43.6°F6.4°C 89% 6.8 mph SSW10.9 kmh SSW 11.3 mph18.2 kmh 29.65 in1004.1 mb 0.00 in0.0 mm 0.00 in0.0 mm 0.00 in0.0 mm
09:25 AM 46.7°F8.2°C 43.6°F6.4°C 89% 5.8 mph SSW9.3 kmh SSW 10.1 mph16.3 kmh 29.65 in1004.1 mb 0.00 in0.0 mm 0.00 in0.0 mm 0.00 in0.0 mm
09:30 AM 46.7°F8.2°C 43.6°F6.4°C 89% 5.4 mph SW8.7 kmh SW 7.4 mph11.9 kmh 29.65 in1004.1 mb 0.00 in0.0 mm 0.00 in0.0 mm 0.00 in0.0 mm
09:35 AM 46.8°F8.2°C 43.8°F6.6°C 89% 4.6 mph SW7.4 kmh SW 7.4 mph11.9 kmh 29.65 in1004.1 mb 0.00 in0.0 mm 0.00 in0.0 mm 0.00 in0.0 mm
09:40 AM 46.8°F8.2°C 43.8°F6.6°C 89% 4.3 mph SW6.9 kmh SW 7.1 mph11.4 kmh 29.65 in1004.1 mb 0.00 in0.0 mm 0.00 in0.0 mm 0.00 in0.0 mm
09:45 AM 46.8°F8.2°C 43.8°F6.6°C 89% 5.2 mph SSW8.4 kmh SSW 9.5 mph15.3 kmh 29.65 in1004.1 mb 0.00 in0.0 mm 0.00 in0.0 mm 0.00 in0.0 mm
09:50 AM 46.8°F8.2°C 43.8°F6.6°C 89% 5.7 mph S9.2 kmh S 9.5 mph15.3 kmh 29.65 in1004.1 mb 0.00 in0.0 mm 0.00 in0.0 mm 0.00 in0.0 mm
09:55 AM 46.8°F8.2°C 43.8°F6.6°C 89% 5.9 mph S9.5 kmh S 8.3 mph13.4 kmh 29.65 in1004.1 mb 0.00 in0.0 mm 0.00 in0.0 mm 0.00 in0.0 mm
10:00 AM 46.7°F8.2°C 43.6°F6.4°C 89% 5.5 mph SSW8.9 kmh SSW 7.1 mph11.4 kmh 29.65 in1004.1 mb 0.00 in0.0 mm 0.00 in0.0 mm 0.00 in0.0 mm
10:05 AM 46.7°F8.2°C 43.6°F6.4°C 89% 5.6 mph SSW9.0 kmh SSW 7.4 mph11.9 kmh 29.65 in1004.1 mb 0.00 in0.0 mm 0.00 in0.0 mm 0.00 in0.0 mm
10:10 AM 46.7°F8.2°C 43.6°F6.4°C 89% 5.7 mph SSW9.2 kmh SSW 7.4 mph11.9 kmh 29.65 in1004.1 mb 0.00 in0.0 mm 0.00 in0.0 mm 0.00 in0.0 mm
10:15 AM 47.2°F8.4°C 44.1°F6.7°C 89% 5.6 mph S9.0 kmh S 7.1 mph11.4 kmh 29.65 in1004.1 mb 0.00 in0.0 mm 0.00 in0.0 mm 0.00 in0.0 mm
10:20 AM 47.6°F8.7°C 44.5°F6.9°C 89% 6.3 mph S10.1 kmh S 8.0 mph12.9 kmh 29.65 in1004.1 mb 0.00 in0.0 mm 0.00 in0.0 mm 0.00 in0.0 mm
10:25 AM 47.8°F8.8°C 44.7°F7.1°C 89% 6.6 mph S10.6 kmh S 12.5 mph20.1 kmh 29.65 in1004.1 mb 0.00 in0.0 mm 0.00 in0.0 mm 0.00 in0.0 mm
10:30 AM 48.1°F8.9°C 45.0°F7.2°C 89% 6.8 mph SSW10.9 kmh SSW 12.5 mph20.1 kmh 29.65 in1004.1 mb 0.00 in0.0 mm 0.00 in0.0 mm 0.00 in0.0 mm
10:35 AM 48.3°F9.1°C 44.9°F7.2°C 88% 7.6 mph SSW12.2 kmh SSW 10.7 mph17.2 kmh 29.62 in1003.0 mb 0.00 in0.0 mm 0.00 in0.0 mm 0.00 in0.0 mm
10:40 AM 48.1°F8.9°C 44.7°F7.1°C 88% 6.8 mph SSW10.9 kmh SSW 10.7 mph17.2 kmh 29.62 in1003.0 mb 0.00 in0.0 mm 0.00 in0.0 mm 0.00 in0.0 mm
10:45 AM 48.1°F8.9°C 44.7°F7.1°C 88% 6.0 mph S9.7 kmh S 8.3 mph13.4 kmh 29.62 in1003.0 mb 0.00 in0.0 mm 0.00 in0.0 mm 0.00 in0.0 mm
10:50 AM 47.9°F8.8°C 44.5°F6.9°C 88% 5.1 mph S8.2 kmh S 7.4 mph11.9 kmh 29.62 in1003.0 mb 0.00 in0.0 mm 0.00 in0.0 mm 0.00 in0.0 mm
10:55 AM 47.9°F8.8°C 44.2°F6.8°C 87% 4.1 mph SSW6.6 kmh SSW 4.8 mph7.7 kmh 29.62 in1003.0 mb 0.00 in0.0 mm 0.00 in0.0 mm 0.00 in0.0 mm
11:00 AM 48.1°F8.9°C 44.4°F6.9°C 87% 4.8 mph SSW7.7 kmh SSW 9.5 mph15.3 kmh 29.62 in1003.0 mb 0.00 in0.0 mm 0.00 in0.0 mm 0.00 in0.0 mm
11:05 AM 48.1°F8.9°C 44.4°F6.9°C 87% 5.5 mph SSW8.9 kmh SSW 9.5 mph15.3 kmh 29.62 in1003.0 mb 0.00 in0.0 mm 0.00 in0.0 mm 0.00 in0.0 mm
11:10 AM 48.1°F8.9°C 44.4°F6.9°C 87% 5.3 mph SSW8.5 kmh SSW 7.4 mph11.9 kmh 29.62 in1003.0 mb 0.00 in0.0 mm 0.00 in0.0 mm 0.00 in0.0 mm
11:15 AM 48.3°F9.1°C 44.6°F7.0°C 87% 5.6 mph SSW9.0 kmh SSW 8.0 mph12.9 kmh 29.62 in1003.0 mb 0.00 in0.0 mm 0.00 in0.0 mm 0.00 in0.0 mm
11:20 AM 48.5°F9.2°C 44.8°F7.1°C 87% 6.3 mph SW10.1 kmh SW 10.7 mph17.2 kmh 29.62 in1003.0 mb 0.00 in0.0 mm 0.00 in0.0 mm 0.00 in0.0 mm
11:25 AM 48.7°F9.3°C 45.0°F7.2°C 87% 6.4 mph SW10.3 kmh SW 10.7 mph17.2 kmh 29.62 in1003.0 mb 0.00 in0.0 mm 0.00 in0.0 mm 0.00 in0.0 mm
11:30 AM 48.7°F9.3°C 44.7°F7.1°C 86% 6.1 mph SW9.8 kmh SW 8.0 mph12.9 kmh 29.62 in1003.0 mb 0.00 in0.0 mm 0.00 in0.0 mm 0.00 in0.0 mm
11:35 AM 48.8°F9.3°C 44.8°F7.1°C 86% 5.0 mph SW8.0 kmh SW 7.4 mph11.9 kmh 29.59 in1002.0 mb 0.00 in0.0 mm 0.00 in0.0 mm 0.00 in0.0 mm
11:40 AM 49.0°F9.4°C 45.0°F7.2°C 86% 5.0 mph WSW8.0 kmh WSW 9.8 mph15.8 kmh 29.59 in1002.0 mb 0.00 in0.0 mm 0.00 in0.0 mm 0.00 in0.0 mm
11:45 AM 49.2°F9.6°C 44.9°F7.2°C 85% 7.5 mph SW12.1 kmh SW 13.1 mph21.1 kmh 29.59 in1002.0 mb 0.00 in0.0 mm 0.00 in0.0 mm 0.00 in0.0 mm
11:50 AM 49.4°F9.7°C 45.0°F7.2°C 85% 7.4 mph SW11.9 kmh SW 13.1 mph21.1 kmh 29.59 in1002.0 mb 0.00 in0.0 mm 0.00 in0.0 mm 0.00 in0.0 mm
11:55 AM 49.4°F9.7°C 44.7°F7.1°C 84% 6.8 mph SW10.9 kmh SW 10.7 mph17.2 kmh 29.59 in1002.0 mb 0.00 in0.0 mm 0.00 in0.0 mm 0.00 in0.0 mm
12:00 PM 49.4°F9.7°C 44.7°F7.1°C 84% 7.7 mph WSW12.4 kmh WSW 10.7 mph17.2 kmh 29.59 in1002.0 mb 0.00 in0.0 mm 0.00 in0.0 mm 0.00 in0.0 mm
12:05 PM 49.4°F9.7°C 44.7°F7.1°C 84% 8.7 mph W14.0 kmh W 12.8 mph20.6 kmh 29.59 in1002.0 mb 0.00 in0.0 mm 0.00 in0.0 mm 0.00 in0.0 mm
12:10 PM 49.0°F9.4°C 44.4°F6.9°C 84% 14.2 mph WSW22.9 kmh WSW 21.1 mph34.0 kmh 29.59 in1002.0 mb 0.00 in0.0 mm 0.00 in0.0 mm 0.00 in0.0 mm
12:15 PM 48.5°F9.2°C 43.9°F6.6°C 84% 13.5 mph WSW21.7 kmh WSW 21.1 mph34.0 kmh 29.59 in1002.0 mb 0.00 in0.0 mm 0.00 in0.0 mm 0.00 in0.0 mm
12:20 PM 48.3°F9.1°C 43.7°F6.5°C 84% 10.7 mph W17.2 kmh W 16.4 mph26.4 kmh 29.59 in1002.0 mb 0.00 in0.0 mm 0.00 in0.0 mm 0.00 in0.0 mm
12:25 PM 48.1°F8.9°C 43.8°F6.6°C 85% 11.0 mph W17.7 kmh W 16.7 mph26.9 kmh 29.59 in1002.0 mb 0.00 in0.0 mm 0.00 in0.0 mm 0.00 in0.0 mm
12:30 PM 47.6°F8.7°C 43.3°F6.3°C 85% 11.1 mph WSW17.9 kmh WSW 17.0 mph27.4 kmh 29.59 in1002.0 mb 0.00 in0.0 mm 0.00 in0.0 mm 0.00 in0.0 mm
12:35 PM 47.2°F8.4°C 42.9°F6.1°C 85% 9.2 mph W14.8 kmh W 17.0 mph27.4 kmh 29.59 in1002.0 mb 0.00 in0.0 mm 0.00 in0.0 mm 0.00 in0.0 mm
12:40 PM 47.0°F8.3°C 42.8°F6.0°C 85% 9.3 mph WNW15.0 kmh WNW 19.6 mph31.5 kmh 29.59 in1002.0 mb 0.00 in0.0 mm 0.00 in0.0 mm 0.00 in0.0 mm
12:45 PM 46.3°F7.9°C 42.0°F5.6°C 85% 12.0 mph NW19.3 kmh NW 19.6 mph31.5 kmh 29.59 in1002.0 mb 0.00 in0.0 mm 0.00 in0.0 mm 0.00 in0.0 mm
12:50 PM 45.8°F7.7°C 41.2°F5.1°C 84% 12.9 mph NW20.8 kmh NW 19.6 mph31.5 kmh 29.62 in1003.0 mb 0.00 in0.0 mm 0.00 in0.0 mm 0.00 in0.0 mm
12:55 PM 45.2°F7.3°C 40.7°F4.8°C 84% 12.0 mph NNW19.3 kmh NNW 17.3 mph27.8 kmh 29.62 in1003.0 mb 0.00 in0.0 mm 0.00 in0.0 mm 0.00 in0.0 mm
01:00 PM 44.9°F7.2°C 40.3°F4.6°C 84% 11.2 mph NW18.0 kmh NW 17.3 mph27.8 kmh 29.62 in1003.0 mb 0.00 in0.0 mm 0.00 in0.0 mm 0.00 in0.0 mm
01:05 PM 44.5°F6.9°C 40.0°F4.4°C 84% 10.5 mph NW16.9 kmh NW 14.6 mph23.5 kmh 29.62 in1003.0 mb 0.00 in0.0 mm 0.00 in0.0 mm 0.00 in0.0 mm
01:10 PM 44.3°F6.8°C 39.8°F4.3°C 84% 9.9 mph NW15.9 kmh NW 14.6 mph23.5 kmh 29.62 in1003.0 mb 0.00 in0.0 mm 0.00 in0.0 mm 0.00 in0.0 mm
01:15 PM 44.2°F6.8°C 39.6°F4.2°C 84% 8.3 mph NW13.4 kmh NW 14.6 mph23.5 kmh 29.62 in1003.0 mb 0.00 in0.0 mm 0.00 in0.0 mm 0.00 in0.0 mm
01:20 PM 44.2°F6.8°C 39.9°F4.4°C 85% 7.4 mph NW11.9 kmh NW 10.7 mph17.2 kmh 29.62 in1003.0 mb 0.00 in0.0 mm 0.00 in0.0 mm 0.00 in0.0 mm
01:25 PM 44.2°F6.8°C 39.9°F4.4°C 85% 6.9 mph NW11.1 kmh NW 10.7 mph17.2 kmh 29.62 in1003.0 mb 0.00 in0.0 mm 0.00 in0.0 mm 0.00 in0.0 mm
01:30 PM 44.2°F6.8°C 39.9°F4.4°C 85% 5.1 mph WNW8.2 kmh WNW 8.6 mph13.8 kmh 29.62 in1003.0 mb 0.00 in0.0 mm 0.00 in0.0 mm 0.00 in0.0 mm
01:35 PM 44.2°F6.8°C 39.9°F4.4°C 85% 4.6 mph NW7.4 kmh NW 7.1 mph11.4 kmh 29.62 in1003.0 mb 0.00 in0.0 mm 0.00 in0.0 mm 0.00 in0.0 mm
01:40 PM 44.2°F6.8°C 39.9°F4.4°C 85% 4.6 mph NW7.4 kmh NW 7.1 mph11.4 kmh 29.62 in1003.0 mb 0.00 in0.0 mm 0.00 in0.0 mm 0.00 in0.0 mm
01:45 PM 44.0°F6.7°C 39.8°F4.3°C 85% 4.8 mph WNW7.7 kmh WNW 7.4 mph11.9 kmh 29.62 in1003.0 mb 0.00 in0.0 mm 0.00 in0.0 mm 0.00 in0.0 mm
01:50 PM 44.0°F6.7°C 39.4°F4.1°C 84% 4.4 mph WNW7.1 kmh WNW 7.4 mph11.9 kmh 29.62 in1003.0 mb 0.00 in0.0 mm 0.00 in0.0 mm 0.00 in0.0 mm
01:55 PM 43.8°F6.6°C 39.3°F4.1°C 84% 4.0 mph WNW6.4 kmh WNW 7.7 mph12.4 kmh 29.62 in1003.0 mb 0.00 in0.0 mm 0.00 in0.0 mm 0.00 in0.0 mm
02:00 PM 43.8°F6.6°C 39.3°F4.1°C 84% 4.5 mph WNW7.2 kmh WNW 7.7 mph12.4 kmh 29.62 in1003.0 mb 0.00 in0.0 mm 0.00 in0.0 mm 0.00 in0.0 mm
02:05 PM 43.6°F6.4°C 39.1°F3.9°C 84% 4.9 mph W7.9 kmh W 11.6 mph18.7 kmh 29.62 in1003.0 mb 0.00 in0.0 mm 0.00 in0.0 mm 0.00 in0.0 mm
02:10 PM 43.6°F6.4°C 39.1°F3.9°C 84% 5.2 mph W8.4 kmh W 11.6 mph18.7 kmh 29.62 in1003.0 mb 0.00 in0.0 mm 0.00 in0.0 mm 0.00 in0.0 mm
02:15 PM 43.6°F6.4°C 39.1°F3.9°C 84% 5.7 mph WNW9.2 kmh WNW 8.0 mph12.9 kmh 29.62 in1003.0 mb 0.00 in0.0 mm 0.00 in0.0 mm 0.00 in0.0 mm
02:20 PM 43.6°F6.4°C 39.1°F3.9°C 84% 7.3 mph NW11.7 kmh NW 13.7 mph22.0 kmh 29.62 in1003.0 mb 0.00 in0.0 mm 0.00 in0.0 mm 0.00 in0.0 mm
02:25 PM 43.6°F6.4°C 38.8°F3.8°C 83% 6.4 mph WNW10.3 kmh WNW 13.7 mph22.0 kmh 29.62 in1003.0 mb 0.00 in0.0 mm 0.00 in0.0 mm 0.00 in0.0 mm
02:30 PM 43.6°F6.4°C 38.8°F3.8°C 83% 5.0 mph W8.0 kmh W 7.4 mph11.9 kmh 29.62 in1003.0 mb 0.00 in0.0 mm 0.00 in0.0 mm 0.00 in0.0 mm
02:35 PM 43.6°F6.4°C 38.8°F3.8°C 83% 6.1 mph W9.8 kmh W 10.4 mph16.7 kmh 29.62 in1003.0 mb 0.00 in0.0 mm 0.00 in0.0 mm 0.00 in0.0 mm
02:40 PM 43.6°F6.4°C 38.8°F3.8°C 83% 6.4 mph W10.3 kmh W 10.4 mph16.7 kmh 29.62 in1003.0 mb 0.00 in0.0 mm 0.00 in0.0 mm 0.00 in0.0 mm
02:45 PM 43.6°F6.4°C 38.8°F3.8°C 83% 5.0 mph W8.0 kmh W 8.6 mph13.8 kmh 29.62 in1003.0 mb 0.00 in0.0 mm 0.00 in0.0 mm 0.00 in0.0 mm
02:50 PM 43.6°F6.4°C 38.8°F3.8°C 83% 4.8 mph WNW7.7 kmh WNW 11.3 mph18.2 kmh 29.62 in1003.0 mb 0.00 in0.0 mm 0.00 in0.0 mm 0.00 in0.0 mm
02:55 PM 43.6°F6.4°C 38.8°F3.8°C 83% 4.9 mph W7.9 kmh W 11.3 mph18.2 kmh 29.62 in1003.0 mb 0.00 in0.0 mm 0.00 in0.0 mm 0.00 in0.0 mm
03:00 PM 43.4°F6.3°C 38.6°F3.7°C 83% 7.7 mph W12.4 kmh W 11.6 mph18.7 kmh 29.62 in1003.0 mb 0.00 in0.0 mm 0.00 in0.0 mm 0.00 in0.0 mm
03:05 PM 43.4°F6.3°C 38.3°F3.5°C 82% 9.0 mph WNW14.5 kmh WNW 11.6 mph18.7 kmh 29.62 in1003.0 mb 0.00 in0.0 mm 0.00 in0.0 mm 0.00 in0.0 mm
03:10 PM 43.4°F6.3°C 38.3°F3.5°C 82% 8.0 mph W12.9 kmh W 10.1 mph16.3 kmh 29.62 in1003.0 mb 0.00 in0.0 mm 0.00 in0.0 mm 0.00 in0.0 mm
03:15 PM 43.4°F6.3°C 38.3°F3.5°C 82% 7.5 mph W12.1 kmh W 10.1 mph16.3 kmh 29.62 in1003.0 mb 0.00 in0.0 mm 0.00 in0.0 mm 0.00 in0.0 mm
03:20 PM 43.4°F6.3°C 38.3°F3.5°C 82% 5.8 mph WNW9.3 kmh WNW 7.7 mph12.4 kmh 29.62 in1003.0 mb 0.00 in0.0 mm 0.00 in0.0 mm 0.00 in0.0 mm
03:25 PM 43.4°F6.3°C 38.3°F3.5°C 82% 5.0 mph W8.0 kmh W 7.1 mph11.4 kmh 29.62 in1003.0 mb 0.00 in0.0 mm 0.00 in0.0 mm 0.00 in0.0 mm
03:30 PM 43.4°F6.3°C 38.3°F3.5°C 82% 4.4 mph W7.1 kmh W 7.1 mph11.4 kmh 29.62 in1003.0 mb 0.00 in0.0 mm 0.00 in0.0 mm 0.00 in0.0 mm
03:35 PM 43.4°F6.3°C 38.6°F3.7°C 83% 4.1 mph WNW6.6 kmh WNW 5.7 mph9.2 kmh 29.62 in1003.0 mb 0.00 in0.0 mm 0.00 in0.0 mm 0.00 in0.0 mm
03:40 PM 43.4°F6.3°C 38.6°F3.7°C 83% 5.8 mph WNW9.3 kmh WNW 10.1 mph16.3 kmh 29.62 in1003.0 mb 0.00 in0.0 mm 0.00 in0.0 mm 0.00 in0.0 mm
03:45 PM 43.3°F6.3°C 38.4°F3.6°C 83% 7.9 mph WNW12.7 kmh WNW 10.1 mph16.3 kmh 29.62 in1003.0 mb 0.00 in0.0 mm 0.00 in0.0 mm 0.00 in0.0 mm
03:50 PM 43.1°F6.2°C 38.3°F3.5°C 83% 7.2 mph WNW11.6 kmh WNW 10.1 mph16.3 kmh 29.62 in1003.0 mb 0.00 in0.0 mm 0.00 in0.0 mm 0.00 in0.0 mm
03:55 PM 42.9°F6.1°C 38.1°F3.4°C 83% 5.4 mph WNW8.7 kmh WNW 8.9 mph14.3 kmh 29.62 in1003.0 mb 0.00 in0.0 mm 0.00 in0.0 mm 0.00 in0.0 mm
04:00 PM 42.9°F6.1°C 38.1°F3.4°C 83% 5.4 mph NW8.7 kmh NW 8.9 mph14.3 kmh 29.62 in1003.0 mb 0.00 in0.0 mm 0.00 in0.0 mm 0.00 in0.0 mm
04:05 PM 42.5°F5.8°C 37.7°F3.2°C 83% 4.3 mph NW6.9 kmh NW 8.0 mph12.9 kmh 29.62 in1003.0 mb 0.00 in0.0 mm 0.00 in0.0 mm 0.00 in0.0 mm
04:10 PM 42.3°F5.7°C 37.2°F2.9°C 82% 4.5 mph WNW7.2 kmh WNW 7.1 mph11.4 kmh 29.62 in1003.0 mb 0.00 in0.0 mm 0.00 in0.0 mm 0.00 in0.0 mm
04:15 PM 42.3°F5.7°C 37.2°F2.9°C 82% 4.2 mph W6.8 kmh W 7.1 mph11.4 kmh 29.62 in1003.0 mb 0.00 in0.0 mm 0.00 in0.0 mm 0.00 in0.0 mm
04:20 PM 42.2°F5.7°C 37.4°F3.0°C 83% 3.6 mph W5.8 kmh W 4.8 mph7.7 kmh 29.62 in1003.0 mb 0.00 in0.0 mm 0.00 in0.0 mm 0.00 in0.0 mm
04:25 PM 42.2°F5.7°C 37.4°F3.0°C 83% 4.2 mph W6.8 kmh W 6.2 mph10.0 kmh 29.62 in1003.0 mb 0.00 in0.0 mm 0.00 in0.0 mm 0.00 in0.0 mm
04:30 PM 42.0°F5.6°C 37.2°F2.9°C 83% 4.1 mph W6.6 kmh W 6.2 mph10.0 kmh 29.62 in1003.0 mb 0.00 in0.0 mm 0.00 in0.0 mm 0.00 in0.0 mm
04:35 PM 42.0°F5.6°C 37.2°F2.9°C 83% 4.2 mph W6.8 kmh W 5.4 mph8.7 kmh 29.62 in1003.0 mb 0.00 in0.0 mm 0.00 in0.0 mm 0.00 in0.0 mm
04:40 PM 41.8°F5.4°C 37.0°F2.8°C 83% 4.5 mph W7.2 kmh W 6.2 mph10.0 kmh 29.62 in1003.0 mb 0.00 in0.0 mm 0.00 in0.0 mm 0.00 in0.0 mm
04:45 PM 41.6°F5.3°C 36.8°F2.7°C 83% 3.8 mph W6.1 kmh W 6.2 mph10.0 kmh 29.62 in1003.0 mb 0.00 in0.0 mm 0.00 in0.0 mm 0.00 in0.0 mm
04:50 PM 41.6°F5.3°C 36.8°F2.7°C 83% 3.0 mph W4.8 kmh W 4.5 mph7.2 kmh 29.62 in1003.0 mb 0.00 in0.0 mm 0.00 in0.0 mm 0.00 in0.0 mm
04:55 PM 41.3°F5.2°C 36.8°F2.7°C 84% 2.5 mph W4.0 kmh W 3.6 mph5.8 kmh 29.62 in1003.0 mb 0.00 in0.0 mm 0.00 in0.0 mm 0.00 in0.0 mm
05:00 PM 41.1°F5.1°C 36.6°F2.6°C 84% 3.1 mph W5.0 kmh W 4.5 mph7.2 kmh 29.62 in1003.0 mb 0.00 in0.0 mm 0.00 in0.0 mm 0.00 in0.0 mm
05:05 PM 41.1°F5.1°C 36.6°F2.6°C 84% 4.0 mph WSW6.4 kmh WSW 4.8 mph7.7 kmh 29.62 in1003.0 mb 0.00 in0.0 mm 0.00 in0.0 mm 0.00 in0.0 mm
05:10 PM 41.1°F5.1°C 36.6°F2.6°C 84% 3.7 mph WSW6.0 kmh WSW 4.8 mph7.7 kmh 29.62 in1003.0 mb 0.00 in0.0 mm 0.00 in0.0 mm 0.00 in0.0 mm
05:15 PM 40.9°F4.9°C 36.4°F2.4°C 84% 2.8 mph WSW4.5 kmh WSW 3.9 mph6.3 kmh 29.62 in1003.0 mb 0.00 in0.0 mm 0.00 in0.0 mm 0.00 in0.0 mm
05:20 PM 40.9°F4.9°C 36.7°F2.6°C 85% 3.2 mph WSW5.1 kmh WSW 4.2 mph6.8 kmh 29.62 in1003.0 mb 0.00 in0.0 mm 0.00 in0.0 mm 0.00 in0.0 mm
05:25 PM 40.9°F4.9°C 36.7°F2.6°C 85% 3.3 mph WSW5.3 kmh WSW 4.2 mph6.8 kmh 29.62 in1003.0 mb 0.00 in0.0 mm 0.00 in0.0 mm 0.00 in0.0 mm
05:30 PM 40.5°F4.7°C 36.4°F2.4°C 85% 2.9 mph WSW4.7 kmh WSW 3.9 mph6.3 kmh 29.62 in1003.0 mb 0.00 in0.0 mm 0.00 in0.0 mm 0.00 in0.0 mm
05:35 PM 40.2°F4.6°C 36.0°F2.2°C 85% 2.3 mph WSW3.7 kmh WSW 3.9 mph6.3 kmh 29.62 in1003.0 mb 0.00 in0.0 mm 0.00 in0.0 mm 0.00 in0.0 mm
05:40 PM 40.2°F4.6°C 36.0°F2.2°C 85% 1.5 mph WSW2.4 kmh WSW 2.7 mph4.3 kmh 29.62 in1003.0 mb 0.00 in0.0 mm 0.00 in0.0 mm 0.00 in0.0 mm
05:45 PM 40.0°F4.4°C 35.9°F2.2°C 85% 1.2 mph WSW1.9 kmh WSW 2.7 mph4.3 kmh 29.62 in1003.0 mb 0.00 in0.0 mm 0.00 in0.0 mm 0.00 in0.0 mm
05:50 PM 40.0°F4.4°C 35.9°F2.2°C 85% 1.0 mph WSW1.6 kmh WSW 2.7 mph4.3 kmh 29.59 in1002.0 mb 0.00 in0.0 mm 0.00 in0.0 mm 0.00 in0.0 mm
05:55 PM 39.7°F4.3°C 35.8°F2.1°C 86% Calm Calm -- 29.59 in1002.0 mb 0.00 in0.0 mm 0.00 in0.0 mm 0.00 in0.0 mm
06:00 PM 39.5°F4.2°C 35.6°F2.0°C 86% 0.2 mph WSW0.3 kmh WSW 1.8 mph2.9 kmh 29.59 in1002.0 mb 0.00 in0.0 mm 0.00 in0.0 mm 0.00 in0.0 mm
06:05 PM 39.5°F4.2°C 35.6°F2.0°C 86% 0.2 mph WSW0.3 kmh WSW 1.8 mph2.9 kmh 29.59 in1002.0 mb 0.00 in0.0 mm 0.00 in0.0 mm 0.00 in0.0 mm
06:10 PM 39.1°F3.9°C 35.3°F1.8°C 86% 0.2 mph WSW0.3 kmh WSW 1.8 mph2.9 kmh 29.59 in1002.0 mb 0.00 in0.0 mm 0.00 in0.0 mm 0.00 in0.0 mm
06:15 PM 39.1°F3.9°C 35.3°F1.8°C 86% Calm Calm -- 29.59 in1002.0 mb 0.00 in0.0 mm 0.00 in0.0 mm 0.00 in0.0 mm
06:20 PM 38.8°F3.8°C 34.9°F1.6°C 86% 0.3 mph WSW0.5 kmh WSW 1.2 mph1.9 kmh 29.59 in1002.0 mb 0.00 in0.0 mm 0.00 in0.0 mm 0.00 in0.0 mm
06:25 PM 38.8°F3.8°C 34.9°F1.6°C 86% 0.6 mph WSW1.0 kmh WSW 2.1 mph3.4 kmh 29.59 in1002.0 mb 0.00 in0.0 mm 0.00 in0.0 mm 0.00 in0.0 mm
06:30 PM 38.4°F3.6°C 34.6°F1.4°C 86% 0.7 mph WSW1.1 kmh WSW 2.1 mph3.4 kmh 29.59 in1002.0 mb 0.00 in0.0 mm 0.00 in0.0 mm 0.00 in0.0 mm
06:35 PM 38.4°F3.6°C 34.9°F1.6°C 87% 1.2 mph SW1.9 kmh SW 3.0 mph4.8 kmh 29.59 in1002.0 mb 0.00 in0.0 mm 0.00 in0.0 mm 0.00 in0.0 mm
06:40 PM 38.4°F3.6°C 34.9°F1.6°C 87% 1.9 mph SW3.1 kmh SW 3.0 mph4.8 kmh 29.59 in1002.0 mb 0.00 in0.0 mm 0.00 in0.0 mm 0.00 in0.0 mm
06:45 PM 38.4°F3.6°C 34.9°F1.6°C 87% 1.9 mph SW3.1 kmh SW 3.0 mph4.8 kmh 29.59 in1002.0 mb 0.00 in0.0 mm 0.00 in0.0 mm 0.00 in0.0 mm
06:50 PM 38.4°F3.6°C 34.9°F1.6°C 87% 1.2 mph SW1.9 kmh SW 1.8 mph2.9 kmh 29.59 in1002.0 mb 0.00 in0.0 mm 0.00 in0.0 mm 0.00 in0.0 mm
06:55 PM 38.6°F3.7°C 35.0°F1.7°C 87% 2.2 mph WSW3.5 kmh WSW 3.9 mph6.3 kmh 29.59 in1002.0 mb 0.00 in0.0 mm 0.00 in0.0 mm 0.00 in0.0 mm
07:00 PM 38.6°F3.7°C 35.3°F1.8°C 88% 3.4 mph WSW5.5 kmh WSW 5.1 mph8.2 kmh 29.59 in1002.0 mb 0.00 in0.0 mm 0.00 in0.0 mm 0.00 in0.0 mm
07:05 PM 38.8°F3.8°C 35.5°F1.9°C 88% 3.4 mph WSW5.5 kmh WSW 5.1 mph8.2 kmh 29.59 in1002.0 mb 0.00 in0.0 mm 0.00 in0.0 mm 0.00 in0.0 mm
07:10 PM 38.9°F3.8°C 35.7°F2.1°C 88% 3.9 mph SW6.3 kmh SW 6.2 mph10.0 kmh 29.59 in1002.0 mb 0.00 in0.0 mm 0.00 in0.0 mm 0.00 in0.0 mm
07:15 PM 39.1°F3.9°C 35.9°F2.2°C 88% 4.5 mph SW7.2 kmh SW 6.2 mph10.0 kmh 29.59 in1002.0 mb 0.00 in0.0 mm 0.00 in0.0 mm 0.00 in0.0 mm
07:20 PM 39.1°F3.9°C 35.9°F2.2°C 88% 3.8 mph SW6.1 kmh SW 6.2 mph10.0 kmh 29.56 in1001.0 mb 0.00 in0.0 mm 0.00 in0.0 mm 0.00 in0.0 mm
07:25 PM 39.1°F3.9°C 35.6°F2.0°C 87% 3.8 mph SW6.1 kmh SW 5.4 mph8.7 kmh 29.56 in1001.0 mb 0.00 in0.0 mm 0.00 in0.0 mm 0.00 in0.0 mm
07:30 PM 38.9°F3.8°C 35.4°F1.9°C 87% 4.2 mph SSW6.8 kmh SSW 5.4 mph8.7 kmh 29.56 in1001.0 mb 0.00 in0.0 mm 0.00 in0.0 mm 0.00 in0.0 mm
07:35 PM 38.9°F3.8°C 35.4°F1.9°C 87% 3.7 mph SSW6.0 kmh SSW 4.8 mph7.7 kmh 29.56 in1001.0 mb 0.00 in0.0 mm 0.00 in0.0 mm 0.00 in0.0 mm
07:40 PM 38.8°F3.8°C 35.2°F1.8°C 87% 3.0 mph SSW4.8 kmh SSW 4.5 mph7.2 kmh 29.56 in1001.0 mb 0.00 in0.0 mm 0.00 in0.0 mm 0.00 in0.0 mm
07:45 PM 38.8°F3.8°C 35.2°F1.8°C 87% 2.9 mph SSW4.7 kmh SSW 4.8 mph7.7 kmh 29.56 in1001.0 mb 0.00 in0.0 mm 0.00 in0.0 mm 0.00 in0.0 mm
07:50 PM 38.8°F3.8°C 35.2°F1.8°C 87% 2.8 mph SW4.5 kmh SW 4.8 mph7.7 kmh 29.59 in1002.0 mb 0.00 in0.0 mm 0.00 in0.0 mm 0.00 in0.0 mm
07:55 PM 38.9°F3.8°C 35.4°F1.9°C 87% 3.7 mph SW6.0 kmh SW 10.4 mph16.7 kmh 29.59 in1002.0 mb 0.00 in0.0 mm 0.00 in0.0 mm 0.00 in0.0 mm
08:00 PM 39.5°F4.2°C 35.9°F2.2°C 87% 7.0 mph SW11.3 kmh SW 11.6 mph18.7 kmh 29.59 in1002.0 mb 0.00 in0.0 mm 0.00 in0.0 mm 0.00 in0.0 mm
08:05 PM 39.7°F4.3°C 36.4°F2.4°C 88% 7.1 mph SW11.4 kmh SW 11.6 mph18.7 kmh 29.59 in1002.0 mb 0.04 in1.0 mm 0.48 in12.2 mm 0.04 in1.0 mm
08:10 PM 39.8°F4.3°C 36.3°F2.4°C 87% 5.7 mph SW9.2 kmh SW 9.8 mph15.8 kmh 29.59 in1002.0 mb 0.04 in1.0 mm 0.00 in0.0 mm 0.04 in1.0 mm
08:15 PM 39.8°F4.3°C 36.3°F2.4°C 87% 4.5 mph WSW7.2 kmh WSW 6.0 mph9.7 kmh 29.59 in1002.0 mb 0.04 in1.0 mm 0.00 in0.0 mm 0.04 in1.0 mm
08:20 PM 39.8°F4.3°C 36.3°F2.4°C 87% 4.3 mph SW6.9 kmh SW 7.4 mph11.9 kmh 29.56 in1001.0 mb 0.04 in1.0 mm 0.00 in0.0 mm 0.04 in1.0 mm
08:25 PM 40.0°F4.4°C 36.5°F2.5°C 87% 4.8 mph SW7.7 kmh SW 7.4 mph11.9 kmh 29.56 in1001.0 mb 0.04 in1.0 mm 0.00 in0.0 mm 0.04 in1.0 mm
08:30 PM 40.0°F4.4°C 36.5°F2.5°C 87% 3.7 mph WSW6.0 kmh WSW 5.4 mph8.7 kmh 29.56 in1001.0 mb 0.04 in1.0 mm 0.00 in0.0 mm 0.04 in1.0 mm
08:35 PM 40.2°F4.6°C 36.6°F2.6°C 87% 3.2 mph SW5.1 kmh SW 4.2 mph6.8 kmh 29.56 in1001.0 mb 0.04 in1.0 mm 0.00 in0.0 mm 0.04 in1.0 mm
08:40 PM 40.0°F4.4°C 36.5°F2.5°C 87% 3.1 mph SW5.0 kmh SW 4.2 mph6.8 kmh 29.56 in1001.0 mb 0.04 in1.0 mm 0.00 in0.0 mm 0.04 in1.0 mm
08:45 PM 40.0°F4.4°C 36.5°F2.5°C 87% 2.9 mph SW4.7 kmh SW 4.2 mph6.8 kmh 29.56 in1001.0 mb 0.04 in1.0 mm 0.00 in0.0 mm 0.04 in1.0 mm
08:50 PM 39.8°F4.3°C 36.3°F2.4°C 87% 3.4 mph SSW5.5 kmh SSW 5.7 mph9.2 kmh 29.56 in1001.0 mb 0.04 in1.0 mm 0.00 in0.0 mm 0.04 in1.0 mm
08:55 PM 39.8°F4.3°C 36.3°F2.4°C 87% 3.4 mph SSW5.5 kmh SSW 5.7 mph9.2 kmh 29.56 in1001.0 mb 0.04 in1.0 mm 0.00 in0.0 mm 0.04 in1.0 mm
09:00 PM 39.8°F4.3°C 36.3°F2.4°C 87% 4.2 mph SSW6.8 kmh SSW 8.3 mph13.4 kmh 29.56 in1001.0 mb 0.04 in1.0 mm 0.00 in0.0 mm 0.04 in1.0 mm
09:05 PM 39.7°F4.3°C 36.1°F2.3°C 87% 4.4 mph S7.1 kmh S 8.3 mph13.4 kmh 29.56 in1001.0 mb 0.00 in0.0 mm 0.00 in0.0 mm 0.04 in1.0 mm
09:10 PM 39.7°F4.3°C 36.1°F2.3°C 87% 3.9 mph SW6.3 kmh SW 7.4 mph11.9 kmh 29.56 in1001.0 mb 0.00 in0.0 mm 0.00 in0.0 mm 0.04 in1.0 mm
09:15 PM 39.8°F4.3°C 36.3°F2.4°C 87% 4.9 mph SW7.9 kmh SW 8.0 mph12.9 kmh 29.56 in1001.0 mb 0.00 in0.0 mm 0.00 in0.0 mm 0.04 in1.0 mm
09:20 PM 39.8°F4.3°C 36.3°F2.4°C 87% 6.7 mph S10.8 kmh S 11.6 mph18.7 kmh 29.56 in1001.0 mb 0.00 in0.0 mm 0.00 in0.0 mm 0.04 in1.0 mm
09:25 PM 40.0°F4.4°C 36.5°F2.5°C 87% 5.2 mph S8.4 kmh S 11.6 mph18.7 kmh 29.56 in1001.0 mb 0.00 in0.0 mm 0.00 in0.0 mm 0.04 in1.0 mm
09:30 PM 40.0°F4.4°C 36.5°F2.5°C 87% 4.1 mph SW6.6 kmh SW 9.8 mph15.8 kmh 29.56 in1001.0 mb 0.00 in0.0 mm 0.00 in0.0 mm 0.04 in1.0 mm
09:35 PM 40.0°F4.4°C 36.5°F2.5°C 87% 4.9 mph SW7.9 kmh SW 9.8 mph15.8 kmh 29.56 in1001.0 mb 0.00 in0.0 mm 0.00 in0.0 mm 0.04 in1.0 mm
09:40 PM 40.0°F4.4°C 36.5°F2.5°C 87% 4.6 mph WSW7.4 kmh WSW 7.4 mph11.9 kmh 29.56 in1001.0 mb 0.00 in0.0 mm 0.00 in0.0 mm 0.04 in1.0 mm
09:45 PM 40.0°F4.4°C 36.5°F2.5°C 87% 5.3 mph WSW8.5 kmh WSW 7.7 mph12.4 kmh 29.56 in1001.0 mb 0.00 in0.0 mm 0.00 in0.0 mm 0.04 in1.0 mm
09:50 PM 40.0°F4.4°C 36.5°F2.5°C 87% 6.1 mph WSW9.8 kmh WSW 7.7 mph12.4 kmh 29.56 in1001.0 mb 0.00 in0.0 mm 0.00 in0.0 mm 0.04 in1.0 mm
09:55 PM 40.0°F4.4°C 36.5°F2.5°C 87% 6.6 mph SW10.6 kmh SW 10.1 mph16.3 kmh 29.56 in1001.0 mb 0.00 in0.0 mm 0.00 in0.0 mm 0.04 in1.0 mm
10:00 PM 40.0°F4.4°C 36.5°F2.5°C 87% 6.2 mph SW10.0 kmh SW 10.1 mph16.3 kmh 29.56 in1001.0 mb 0.04 in1.0 mm 0.04 in1.0 mm 0.08 in2.0 mm
10:05 PM 39.8°F4.3°C 36.3°F2.4°C 87% 4.4 mph WSW7.1 kmh WSW 5.4 mph8.7 kmh 29.56 in1001.0 mb 0.04 in1.0 mm 0.00 in0.0 mm 0.08 in2.0 mm
10:10 PM 39.8°F4.3°C 36.3°F2.4°C 87% 4.6 mph WSW7.4 kmh WSW 7.1 mph11.4 kmh 29.56 in1001.0 mb 0.04 in1.0 mm 0.00 in0.0 mm 0.08 in2.0 mm
10:15 PM 39.8°F4.3°C 36.3°F2.4°C 87% 4.5 mph WSW7.2 kmh WSW 7.1 mph11.4 kmh 29.56 in1001.0 mb 0.04 in1.0 mm 0.00 in0.0 mm 0.08 in2.0 mm
10:20 PM 39.8°F4.3°C 36.3°F2.4°C 87% 3.7 mph SW6.0 kmh SW 6.5 mph10.5 kmh 29.56 in1001.0 mb 0.04 in1.0 mm 0.00 in0.0 mm 0.08 in2.0 mm
10:25 PM 39.8°F4.3°C 36.6°F2.6°C 88% 4.6 mph WSW7.4 kmh WSW 7.1 mph11.4 kmh 29.56 in1001.0 mb 0.04 in1.0 mm 0.00 in0.0 mm 0.08 in2.0 mm
10:30 PM 39.8°F4.3°C 36.6°F2.6°C 88% 5.4 mph WSW8.7 kmh WSW 7.1 mph11.4 kmh 29.56 in1001.0 mb 0.04 in1.0 mm 0.00 in0.0 mm 0.08 in2.0 mm
10:35 PM 39.8°F4.3°C 36.6°F2.6°C 88% 5.4 mph WSW8.7 kmh WSW 7.1 mph11.4 kmh 29.56 in1001.0 mb 0.04 in1.0 mm 0.00 in0.0 mm 0.08 in2.0 mm
10:40 PM 40.0°F4.4°C 36.7°F2.6°C 88% 5.7 mph WSW9.2 kmh WSW 8.6 mph13.8 kmh 29.56 in1001.0 mb 0.04 in1.0 mm 0.00 in0.0 mm 0.08 in2.0 mm
10:45 PM 40.0°F4.4°C 36.7°F2.6°C 88% 5.9 mph WSW9.5 kmh WSW 8.6 mph13.8 kmh 29.56 in1001.0 mb 0.04 in1.0 mm 0.00 in0.0 mm 0.08 in2.0 mm
10:50 PM 40.2°F4.6°C 36.9°F2.7°C 88% 5.7 mph WSW9.2 kmh WSW 9.5 mph15.3 kmh 29.56 in1001.0 mb 0.04 in1.0 mm 0.00 in0.0 mm 0.08 in2.0 mm
10:55 PM 40.2°F4.6°C 37.2°F2.9°C 89% 5.3 mph WSW8.5 kmh WSW 9.5 mph15.3 kmh 29.56 in1001.0 mb 0.04 in1.0 mm 0.00 in0.0 mm 0.08 in2.0 mm
11:00 PM 40.2°F4.6°C 37.2°F2.9°C 89% 5.3 mph WSW8.5 kmh WSW 8.0 mph12.9 kmh 29.56 in1001.0 mb 0.00 in0.0 mm 0.00 in0.0 mm 0.08 in2.0 mm
11:05 PM 40.4°F4.7°C 37.4°F3.0°C 89% 5.5 mph WSW8.9 kmh WSW 8.0 mph12.9 kmh 29.56 in1001.0 mb 0.00 in0.0 mm 0.00 in0.0 mm 0.08 in2.0 mm
11:10 PM 40.4°F4.7°C 37.4°F3.0°C 89% 6.1 mph WSW9.8 kmh WSW 8.6 mph13.8 kmh 29.56 in1001.0 mb 0.00 in0.0 mm 0.00 in0.0 mm 0.08 in2.0 mm
11:15 PM 40.4°F4.7°C 37.4°F3.0°C 89% 8.1 mph WSW13.0 kmh WSW 13.4 mph21.6 kmh 29.56 in1001.0 mb 0.00 in0.0 mm 0.00 in0.0 mm 0.08 in2.0 mm
11:20 PM 40.4°F4.7°C 37.4°F3.0°C 89% 7.9 mph WSW12.7 kmh WSW 13.4 mph21.6 kmh 29.56 in1001.0 mb 0.00 in0.0 mm 0.00 in0.0 mm 0.08 in2.0 mm
11:25 PM 40.4°F4.7°C 37.4°F3.0°C 89% 6.1 mph WSW9.8 kmh WSW 9.5 mph15.3 kmh 29.56 in1001.0 mb 0.00 in0.0 mm 0.00 in0.0 mm 0.08 in2.0 mm
11:30 PM 40.4°F4.7°C 37.4°F3.0°C 89% 5.8 mph WSW9.3 kmh WSW 9.5 mph15.3 kmh 29.56 in1001.0 mb 0.00 in0.0 mm 0.00 in0.0 mm 0.08 in2.0 mm
11:35 PM 40.2°F4.6°C 37.2°F2.9°C 89% 5.2 mph WSW8.4 kmh WSW 7.7 mph12.4 kmh 29.56 in1001.0 mb 0.00 in0.0 mm 0.00 in0.0 mm 0.08 in2.0 mm
11:40 PM 40.2°F4.6°C 37.2°F2.9°C 89% 4.2 mph W6.8 kmh W 7.7 mph12.4 kmh 29.56 in1001.0 mb 0.00 in0.0 mm 0.00 in0.0 mm 0.08 in2.0 mm
11:45 PM 40.4°F4.7°C 37.4°F3.0°C 89% 4.5 mph WNW7.2 kmh WNW 7.4 mph11.9 kmh 29.56 in1001.0 mb 0.00 in0.0 mm 0.00 in0.0 mm 0.08 in2.0 mm
11:50 PM 40.4°F4.7°C 37.4°F3.0°C 89% 4.9 mph WNW7.9 kmh WNW 7.4 mph11.9 kmh 29.56 in1001.0 mb 0.00 in0.0 mm 0.00 in0.0 mm 0.08 in2.0 mm
11:55 PM 40.4°F4.7°C 37.4°F3.0°C 89% 5.1 mph WNW8.2 kmh WNW 7.4 mph11.9 kmh 29.56 in1001.0 mb 0.00 in0.0 mm 0.00 in0.0 mm 0.08 in2.0 mm